Jamshedpur, India
Current Conditions -  °F | °C
As of 1:20 PM on Friday 24 Oct 2014 (Local Time) from VECC Reporting Station
Haze Haze  
Wind Chill: 88°   Ceiling: Unl
Heat Index: 88°   Visibility: 2.5mi
Dew Point: 63°   Wind: 6mph
Humidity: 43%   Direction: 320°NW
Pressure: 29.8"   Gusts: NA
Location:  22.78°N, 86.21°E
Report Text: VECC 240820Z 32005KT 4000 HZ FEW020 SCT025 31/17 Q1009 NOSIG
Loading
Personal Weather Stations






























Interactive Weather Map
Tropical Storm Tracking
New forecast layout! Learn more

10-Day Weather Forecast

Advertisements
Track Severe Weather on mobile